createdAt,value
2022-11-24T00:00:20.407Z,90.06
2022-11-24T00:02:51.825Z,89.78
2022-11-24T00:05:21.514Z,89.70
2022-11-24T00:07:48.211Z,89.45
2022-11-24T00:10:20.259Z,89.60
2022-11-24T00:12:46.951Z,89.48
2022-11-24T00:15:13.690Z,89.67
2022-11-24T00:17:43.053Z,89.30
2022-11-24T00:20:13.407Z,89.89
2022-11-24T00:22:44.753Z,90.63
2022-11-24T00:25:11.418Z,91.91
2022-11-24T00:27:38.095Z,92.88
2022-11-24T00:30:10.182Z,92.67
2022-11-24T00:32:36.979Z,91.82
2022-11-24T00:35:06.857Z,91.21
2022-11-24T00:37:37.966Z,91.29
2022-11-24T00:40:09.860Z,92.14
2022-11-24T00:42:38.725Z,91.91
2022-11-24T00:45:13.436Z,91.20
2022-11-24T00:47:43.388Z,90.78
2022-11-24T00:50:10.523Z,90.32
2022-11-24T00:52:39.703Z,91.08
2022-11-24T00:55:11.698Z,91.98
2022-11-24T00:57:38.540Z,91.56
2022-11-24T01:00:10.987Z,91.63
2022-11-24T01:02:40.781Z,90.79
2022-11-24T01:05:12.607Z,91.13
2022-11-24T01:07:39.344Z,90.45
2022-11-24T01:10:06.697Z,89.55
2022-11-24T01:12:35.263Z,90.98
2022-11-24T01:15:01.983Z,91.04
2022-11-24T01:17:30.804Z,91.40
2022-11-24T01:20:02.253Z,92.07
2022-11-24T01:22:28.857Z,92.01
2022-11-24T01:24:57.680Z,90.74
2022-11-24T01:27:31.628Z,91.66
2022-11-24T01:30:00.491Z,91.27
2022-11-24T01:32:29.801Z,91.88
2022-11-24T01:34:56.323Z,92.78
2022-11-24T01:37:22.968Z,93.58
2022-11-24T01:39:52.099Z,93.38
2022-11-24T01:42:18.788Z,92.44
2022-11-24T01:44:45.374Z,91.73
2022-11-24T01:47:26.403Z,91.68
2022-11-24T01:49:56.765Z,91.35
2022-11-24T01:52:36.169Z,91.33
2022-11-24T01:55:08.639Z,92.74
2022-11-24T01:57:54.184Z,92.24
2022-11-24T02:00:20.844Z,92.29
2022-11-24T02:02:49.831Z,91.84
2022-11-24T02:05:28.863Z,91.42
2022-11-24T02:08:00.776Z,91.91
2022-11-24T02:10:28.369Z,92.05
2022-11-24T02:12:57.746Z,92.86
2022-11-24T02:15:24.704Z,94.04
2022-11-24T02:17:53.588Z,94.71
2022-11-24T02:20:22.592Z,94.51
2022-11-24T02:23:10.983Z,94.30
2022-11-24T02:25:55.869Z,93.88
2022-11-24T02:28:25.789Z,93.93
2022-11-24T02:30:57.403Z,92.53
2022-11-24T02:33:27.322Z,93.67
2022-11-24T02:35:54.239Z,92.79
2022-11-24T02:38:30.028Z,92.95
2022-11-24T02:41:00.342Z,92.82
2022-11-24T02:43:34.046Z,92.73
2022-11-24T02:46:03.022Z,94.01
2022-11-24T02:48:29.635Z,93.98
2022-11-24T02:50:56.259Z,94.57
2022-11-24T02:53:25.214Z,93.91
2022-11-24T02:55:54.341Z,94.81
2022-11-24T02:58:23.471Z,93.76
2022-11-24T03:00:50.981Z,92.99
2022-11-24T03:03:19.959Z,93.93
2022-11-24T03:05:46.838Z,93.57
2022-11-24T03:08:13.436Z,94.14
2022-11-24T03:10:40.114Z,93.98
2022-11-24T03:13:09.303Z,94.46
2022-11-24T03:15:38.504Z,94.05
2022-11-24T03:18:07.568Z,94.63
2022-11-24T03:20:34.433Z,94.53
2022-11-24T03:23:05.960Z,94.59
2022-11-24T03:25:34.974Z,94.63
2022-11-24T03:28:01.735Z,93.87
2022-11-24T03:30:33.018Z,93.89
2022-11-24T03:33:01.907Z,94.24
2022-11-24T03:35:33.287Z,94.58
2022-11-24T03:37:59.759Z,94.70
2022-11-24T03:40:26.271Z,94.65
2022-11-24T03:42:52.777Z,92.25
2022-11-24T03:48:09.682Z,91.16
2022-11-24T03:50:41.556Z,89.50
2022-11-24T03:53:08.375Z,89.51
2022-11-24T03:55:35.745Z,91.38
2022-11-24T03:58:02.453Z,89.44
2022-11-24T04:00:31.700Z,89.63
2022-11-24T04:03:00.558Z,90.59
2022-11-24T04:05:29.823Z,91.66
2022-11-24T04:08:03.713Z,92.32
2022-11-24T04:10:33.394Z,93.18
2022-11-24T04:13:02.353Z,92.80
2022-11-24T04:15:31.579Z,93.71
2022-11-24T04:17:58.110Z,94.88
2022-11-24T04:20:27.854Z,94.82
2022-11-24T04:22:54.342Z,95.41
2022-11-24T04:25:23.203Z,95.52
2022-11-24T04:27:53.909Z,95.59
2022-11-24T04:30:21.558Z,96.22
2022-11-24T04:32:48.235Z,95.74
2022-11-24T04:35:15.049Z,95.10
2022-11-24T04:37:41.639Z,93.90
2022-11-24T04:40:10.407Z,93.33
2022-11-24T04:42:39.540Z,93.86
2022-11-24T04:45:11.564Z,94.63
2022-11-24T04:47:38.391Z,94.41
2022-11-24T04:50:08.896Z,94.82
2022-11-24T04:52:37.785Z,94.79
2022-11-24T04:55:04.427Z,94.05
2022-11-24T04:57:34.037Z,92.67
2022-11-24T05:00:00.497Z,91.75
2022-11-24T05:02:26.994Z,91.04
2022-11-24T05:04:53.487Z,91.55
2022-11-24T05:07:22.370Z,92.63
2022-11-24T05:10:07.680Z,90.85
2022-11-24T05:12:34.260Z,91.10
2022-11-24T05:15:07.110Z,91.11
2022-11-24T05:17:36.198Z,89.69
2022-11-24T05:20:05.731Z,88.87
2022-11-24T05:22:32.550Z,90.22
2022-11-24T05:24:59.146Z,89.47
2022-11-24T05:27:27.971Z,88.29
2022-11-24T05:29:54.558Z,87.90
2022-11-24T05:32:23.289Z,88.80
2022-11-24T05:34:49.864Z,87.81
2022-11-24T05:37:18.841Z,87.24
2022-11-24T05:39:48.168Z,88.06
2022-11-24T05:42:35.789Z,88.65
2022-11-24T05:45:02.384Z,88.53
2022-11-24T05:47:31.190Z,87.91
2022-11-24T05:49:57.707Z,86.33
2022-11-24T05:52:28.839Z,83.56
2022-11-24T05:54:55.377Z,82.04
2022-11-24T05:57:21.935Z,82.26
2022-11-24T05:59:50.910Z,82.86
2022-11-24T06:02:19.793Z,82.61
2022-11-24T06:04:46.495Z,81.95
2022-11-24T06:07:13.604Z,78.92
2022-11-24T06:09:41.486Z,79.65
2022-11-24T06:12:10.480Z,78.40
2022-11-24T06:14:40.348Z,79.33
2022-11-24T06:17:07.659Z,79.72
2022-11-24T06:19:37.383Z,79.64
2022-11-24T06:22:06.609Z,80.80
2022-11-24T06:24:37.677Z,77.23
2022-11-24T06:27:06.769Z,78.48
2022-11-24T06:29:33.279Z,80.80
2022-11-24T06:31:59.883Z,79.46
2022-11-24T06:34:26.447Z,78.36
2022-11-24T06:36:57.500Z,76.72
2022-11-24T06:39:28.974Z,78.80
2022-11-24T06:42:02.884Z,74.89
2022-11-24T06:44:29.422Z,76.89
2022-11-24T06:47:00.572Z,73.36
2022-11-24T06:49:27.162Z,76.18
2022-11-24T06:51:54.858Z,74.68
2022-11-24T06:54:22.169Z,72.70
2022-11-24T06:56:48.749Z,76.91
2022-11-24T06:59:18.065Z,80.17
2022-11-24T07:01:44.728Z,78.81
2022-11-24T07:04:13.565Z,75.22
2022-11-24T07:06:42.720Z,74.31
2022-11-24T07:09:12.089Z,76.14
2022-11-24T07:11:59.755Z,73.69
2022-11-24T07:14:26.263Z,72.07
2022-11-24T07:16:55.116Z,75.28
2022-11-24T07:19:25.362Z,72.70
2022-11-24T07:21:54.383Z,72.80
2022-11-24T07:24:25.890Z,74.62
2022-11-24T07:26:52.391Z,69.65
2022-11-24T07:29:19.047Z,70.27
2022-11-24T07:31:48.146Z,70.20
2022-11-24T07:34:14.924Z,69.64
2022-11-24T07:36:42.762Z,66.81
2022-11-24T07:39:09.555Z,69.68
2022-11-24T07:41:38.604Z,69.08
2022-11-24T07:44:07.407Z,71.05
2022-11-24T07:46:33.902Z,71.53
2022-11-24T07:49:00.448Z,75.43
2022-11-24T07:51:26.950Z,72.67
2022-11-24T07:53:53.513Z,72.34
2022-11-24T07:56:20.040Z,72.50
2022-11-24T07:58:52.790Z,75.25
2022-11-24T08:01:20.181Z,74.40
2022-11-24T08:03:49.627Z,74.42
2022-11-24T08:06:30.023Z,74.88
2022-11-24T08:09:01.557Z,71.50
2022-11-24T08:15:15.679Z,72.00
2022-11-24T08:17:44.231Z,65.13
2022-11-24T08:20:10.828Z,65.45
2022-11-24T08:22:38.420Z,63.21
2022-11-24T08:25:11.141Z,65.45
2022-11-24T08:27:40.226Z,70.43
2022-11-24T08:30:10.045Z,66.45
2022-11-24T08:32:47.718Z,67.48
2022-11-24T08:35:16.519Z,66.64
2022-11-24T08:37:45.263Z,70.34
2022-11-24T08:40:39.857Z,68.84
2022-11-24T08:43:06.391Z,70.45
2022-11-24T08:45:44.461Z,69.48
2022-11-24T08:48:10.971Z,73.62
2022-11-24T08:50:42.829Z,75.62
2022-11-24T08:53:09.361Z,75.59
2022-11-24T08:55:40.513Z,75.16
2022-11-24T08:58:09.357Z,76.92
2022-11-24T09:00:35.952Z,76.40
2022-11-24T09:03:10.828Z,75.90
2022-11-24T09:05:51.701Z,71.08
2022-11-24T09:08:21.922Z,70.53
2022-11-24T09:10:48.473Z,71.20
2022-11-24T09:13:27.118Z,71.88
2022-11-24T09:15:56.442Z,72.80
2022-11-24T09:18:30.386Z,71.70
2022-11-24T09:21:12.727Z,74.95
2022-11-24T09:23:40.512Z,71.27
2022-11-24T09:26:31.575Z,70.95
2022-11-24T09:28:59.543Z,73.33
2022-11-24T09:31:29.842Z,71.17
2022-11-24T09:33:59.538Z,68.82
2022-11-24T09:36:26.573Z,73.75
2022-11-24T09:38:56.095Z,72.20
2022-11-24T09:41:25.314Z,71.50
2022-11-24T09:44:10.497Z,72.63
2022-11-24T09:47:14.765Z,71.87
2022-11-24T09:50:00.014Z,71.81
2022-11-24T09:53:08.824Z,70.34
2022-11-24T09:55:52.220Z,71.94
2022-11-24T09:58:24.612Z,72.65
2022-11-24T10:00:53.542Z,72.40
2022-11-24T10:03:39.159Z,73.56
2022-11-24T10:06:19.187Z,71.17
2022-11-24T10:08:51.913Z,69.68
2022-11-24T10:11:45.610Z,69.70
2022-11-24T10:18:36.158Z,68.43
2022-11-24T10:21:40.398Z,69.26
2022-11-24T10:24:22.266Z,69.17
2022-11-24T10:27:10.891Z,70.25
2022-11-24T10:29:42.662Z,70.12
2022-11-24T10:32:42.882Z,69.45
2022-11-24T10:35:26.562Z,69.05
2022-11-24T10:38:18.040Z,69.95
2022-11-24T10:41:09.360Z,70.04
2022-11-24T10:43:41.736Z,70.63
2022-11-24T10:46:19.305Z,72.16
2022-11-24T10:49:00.540Z,72.27
2022-11-24T10:51:48.576Z,72.75
2022-11-24T10:54:21.044Z,72.08
2022-11-24T10:56:50.399Z,70.22
2022-11-24T10:59:32.444Z,70.30
2022-11-24T11:01:59.989Z,71.21
2022-11-24T11:04:35.269Z,70.08
2022-11-24T11:08:11.379Z,72.23
2022-11-24T11:11:07.632Z,72.51
2022-11-24T11:13:36.516Z,73.55
2022-11-24T11:16:24.696Z,72.90
2022-11-24T11:18:53.590Z,73.33
2022-11-24T11:21:31.442Z,73.55
2022-11-24T11:24:03.817Z,72.71
2022-11-24T11:26:38.971Z,72.49
2022-11-24T11:34:56.180Z,73.15
2022-11-24T11:37:29.662Z,73.29
2022-11-24T11:39:59.918Z,73.66
2022-11-24T11:43:00.805Z,72.74
2022-11-24T11:45:35.570Z,72.71
2022-11-24T11:48:02.076Z,72.54
2022-11-24T11:51:21.237Z,72.87
2022-11-24T11:53:46.436Z,73.52
2022-11-24T11:56:25.047Z,73.98
2022-11-24T11:59:29.790Z,74.37
2022-11-24T12:02:29.653Z,76.90
2022-11-24T12:05:05.104Z,74.67
2022-11-24T12:08:17.597Z,74.90
2022-11-24T12:11:18.563Z,74.79
2022-11-24T12:13:53.507Z,75.23
2022-11-24T12:16:27.352Z,74.56
2022-11-24T12:19:07.553Z,74.30
2022-11-24T12:21:52.710Z,74.55
2022-11-24T12:24:32.322Z,74.05
2022-11-24T12:27:52.065Z,75.31
2022-11-24T12:30:22.091Z,75.36
2022-11-24T12:33:12.892Z,74.67
2022-11-24T12:35:44.242Z,74.69
2022-11-24T12:38:25.643Z,74.04
2022-11-24T12:44:22.989Z,74.84
2022-11-24T12:47:08.210Z,75.23
2022-11-24T12:49:49.987Z,74.04
2022-11-24T12:52:31.613Z,74.89
2022-11-24T12:55:04.875Z,75.03
2022-11-24T12:57:41.792Z,75.12
2022-11-24T13:00:20.318Z,75.30
2022-11-24T13:03:11.106Z,75.84
2022-11-24T13:05:59.573Z,75.14
2022-11-24T13:08:28.018Z,74.62
2022-11-24T13:10:57.124Z,74.95
2022-11-24T13:13:29.852Z,75.62
2022-11-24T13:16:20.656Z,75.48
2022-11-24T13:19:01.228Z,74.75
2022-11-24T13:21:29.811Z,75.32
2022-11-24T13:23:58.404Z,75.35
2022-11-24T13:26:51.650Z,76.26
2022-11-24T13:29:27.279Z,76.59
2022-11-24T13:31:58.302Z,77.12
2022-11-24T13:34:40.344Z,76.90
2022-11-24T13:37:26.824Z,77.13
2022-11-24T13:40:13.477Z,76.67
2022-11-24T13:43:07.620Z,76.56
2022-11-24T13:45:40.480Z,76.39
2022-11-24T13:48:22.440Z,77.14
2022-11-24T13:50:56.154Z,76.63
2022-11-24T13:53:36.984Z,76.47
2022-11-24T13:56:11.659Z,76.11
2022-11-24T13:58:38.210Z,77.40
2022-11-24T14:01:40.973Z,77.18
2022-11-24T14:04:31.871Z,76.88
2022-11-24T14:07:14.246Z,77.01
2022-11-24T14:09:46.600Z,77.74
2022-11-24T14:12:16.233Z,77.31
2022-11-24T14:14:45.519Z,78.25
2022-11-24T14:17:23.479Z,78.48
2022-11-24T14:19:52.849Z,77.73
2022-11-24T14:22:26.606Z,77.91
2022-11-24T14:24:59.852Z,78.28
2022-11-24T14:27:30.639Z,78.01
2022-11-24T14:30:04.019Z,77.67
2022-11-24T14:32:35.583Z,77.02
2022-11-24T14:35:02.165Z,76.88
2022-11-24T14:37:28.717Z,76.82
2022-11-24T14:39:57.568Z,76.81
2022-11-24T14:42:27.227Z,77.20
2022-11-24T14:44:56.794Z,77.41
2022-11-24T14:47:31.418Z,77.54
2022-11-24T14:50:08.278Z,77.96
2022-11-24T14:52:35.314Z,76.91
2022-11-24T14:55:21.525Z,76.09
2022-11-24T14:57:52.889Z,77.08
2022-11-24T15:00:27.413Z,77.22
2022-11-24T15:03:20.209Z,76.29
2022-11-24T15:05:57.209Z,76.58
2022-11-24T15:08:31.047Z,76.49
2022-11-24T15:11:00.398Z,76.17
2022-11-24T15:13:33.674Z,75.90
2022-11-24T15:16:03.981Z,76.05
2022-11-24T15:18:36.735Z,76.31
2022-11-24T15:21:04.070Z,75.83
2022-11-24T15:23:35.186Z,77.01
2022-11-24T15:26:03.947Z,76.28
2022-11-24T15:28:34.276Z,76.67
2022-11-24T15:31:05.728Z,76.41
2022-11-24T15:33:32.683Z,76.43
2022-11-24T15:36:01.708Z,76.33
2022-11-24T15:38:31.322Z,76.45
2022-11-24T15:41:17.583Z,76.74
2022-11-24T15:43:44.084Z,76.90
2022-11-24T15:46:13.056Z,76.57
2022-11-24T15:48:39.787Z,76.14
2022-11-24T15:51:11.399Z,76.79
2022-11-24T15:53:40.662Z,77.79
2022-11-24T15:56:11.412Z,78.11
2022-11-24T15:58:37.907Z,77.23
2022-11-24T16:01:04.433Z,77.22
2022-11-24T16:03:48.352Z,78.43
2022-11-24T16:06:24.763Z,78.40
2022-11-24T16:08:52.386Z,77.68
2022-11-24T16:11:21.776Z,77.63
2022-11-24T16:13:52.324Z,78.17
2022-11-24T16:16:21.225Z,78.37
2022-11-24T16:18:47.797Z,79.24
2022-11-24T16:21:19.307Z,78.53
2022-11-24T16:23:48.796Z,79.33
2022-11-24T16:26:15.376Z,79.00
2022-11-24T16:28:42.814Z,78.62
2022-11-24T16:31:16.454Z,79.14
2022-11-24T16:33:44.920Z,79.05
2022-11-24T16:36:11.689Z,79.29
2022-11-24T16:38:40.594Z,79.47
2022-11-24T16:41:07.413Z,79.49
2022-11-24T16:43:36.204Z,79.53
2022-11-24T16:46:20.389Z,79.86
2022-11-24T16:48:49.645Z,79.75
2022-11-24T16:51:19.773Z,80.33
2022-11-24T16:53:56.175Z,80.36
2022-11-24T16:56:24.965Z,80.15
2022-11-24T16:58:53.868Z,80.30
2022-11-24T17:01:20.908Z,80.09
2022-11-24T17:03:47.958Z,79.98
2022-11-24T17:06:16.204Z,79.65
2022-11-24T17:08:44.337Z,79.77
2022-11-24T17:11:16.006Z,79.85
2022-11-24T17:13:43.352Z,80.07
2022-11-24T17:16:12.665Z,79.96
2022-11-24T17:18:39.918Z,80.18
2022-11-24T17:21:10.175Z,79.67
2022-11-24T17:23:39.427Z,79.76
2022-11-24T17:26:08.833Z,79.44
2022-11-24T17:28:37.891Z,79.01
2022-11-24T17:31:28.970Z,79.17
2022-11-24T17:33:57.398Z,78.32
2022-11-24T17:36:26.435Z,77.75
2022-11-24T17:38:53.534Z,78.02
2022-11-24T17:41:21.429Z,77.88
2022-11-24T17:43:55.777Z,78.43
2022-11-24T17:46:26.007Z,78.05
2022-11-24T17:48:54.871Z,78.62
2022-11-24T17:51:23.380Z,78.42
2022-11-24T17:53:54.003Z,77.67
2022-11-24T17:56:27.845Z,77.80
2022-11-24T17:59:02.548Z,78.51
2022-11-24T18:01:30.226Z,77.58
2022-11-24T18:03:57.419Z,76.96
2022-11-24T18:06:25.556Z,77.32
2022-11-24T18:08:55.990Z,76.43
2022-11-24T18:11:32.018Z,76.51
2022-11-24T18:14:02.039Z,76.41
2022-11-24T18:16:31.028Z,75.80
2022-11-24T18:19:14.605Z,76.00
2022-11-24T18:21:45.220Z,75.79
2022-11-24T18:24:18.606Z,75.96
2022-11-24T18:26:50.202Z,75.04
2022-11-24T18:29:18.956Z,75.93
2022-11-24T18:31:47.760Z,75.60
2022-11-24T18:34:16.748Z,74.67
2022-11-24T18:36:47.467Z,74.48
2022-11-24T18:39:17.893Z,75.01
2022-11-24T18:41:47.404Z,74.82
2022-11-24T18:44:16.246Z,75.70
2022-11-24T18:46:42.789Z,75.49
2022-11-24T18:49:11.383Z,74.22
2022-11-24T18:51:37.850Z,74.65
2022-11-24T18:54:05.471Z,75.44
2022-11-24T18:56:34.753Z,72.99
2022-11-24T18:59:01.283Z,73.56
2022-11-24T19:01:28.973Z,74.78
2022-11-24T19:03:57.730Z,75.63
2022-11-24T19:06:32.382Z,74.92
2022-11-24T19:09:01.708Z,75.86
2022-11-24T19:11:32.607Z,75.49
2022-11-24T19:14:00.416Z,75.92
2022-11-24T19:16:26.975Z,75.74
2022-11-24T19:18:57.308Z,75.49
2022-11-24T19:21:26.553Z,75.60
2022-11-24T19:23:53.391Z,75.88
2022-11-24T19:26:22.395Z,76.28
2022-11-24T19:28:49.161Z,76.39
2022-11-24T19:31:19.293Z,76.72
2022-11-24T19:33:49.407Z,76.79
2022-11-24T19:36:19.008Z,77.49
2022-11-24T19:38:53.426Z,77.73
2022-11-24T19:41:22.070Z,77.97
2022-11-24T19:43:53.414Z,78.12
2022-11-24T19:46:27.449Z,78.64
2022-11-24T19:48:56.896Z,78.54
2022-11-24T19:51:25.858Z,78.27
2022-11-24T19:53:53.598Z,77.60
2022-11-24T19:56:26.427Z,77.49
2022-11-24T19:58:55.826Z,76.97
2022-11-24T20:01:26.844Z,76.94
2022-11-24T20:03:57.028Z,77.09
2022-11-24T20:06:23.549Z,76.31
2022-11-24T20:08:50.079Z,75.96
2022-11-24T20:11:19.496Z,75.91
2022-11-24T20:13:49.837Z,75.55
2022-11-24T20:16:19.401Z,76.00
2022-11-24T20:18:47.708Z,75.92
2022-11-24T20:21:22.198Z,76.32
2022-11-24T20:23:59.668Z,76.15
2022-11-24T20:26:28.237Z,76.17
2022-11-24T20:28:56.488Z,76.30
2022-11-24T20:31:28.842Z,76.35
2022-11-24T20:34:01.122Z,76.37
2022-11-24T20:36:31.978Z,77.20
2022-11-24T20:39:02.766Z,77.08
2022-11-24T20:41:32.629Z,76.58
2022-11-24T20:44:05.042Z,76.75
2022-11-24T20:46:35.911Z,77.06
2022-11-24T20:49:05.884Z,76.61
2022-11-24T20:51:37.189Z,76.66
2022-11-24T20:54:07.735Z,76.84
2022-11-24T20:56:36.831Z,76.28
2022-11-24T20:59:06.342Z,76.11
2022-11-24T21:01:43.112Z,75.76
2022-11-24T21:04:13.466Z,76.12
2022-11-24T21:06:42.653Z,75.54
2022-11-24T21:09:14.692Z,75.64
2022-11-24T21:11:44.286Z,75.72
2022-11-24T21:14:11.514Z,76.36
2022-11-24T21:16:40.394Z,75.43
2022-11-24T21:19:12.698Z,76.42
2022-11-24T21:21:43.518Z,75.27
2022-11-24T21:24:17.616Z,75.13
2022-11-24T21:26:47.898Z,75.80
2022-11-24T21:29:17.205Z,75.78
2022-11-24T21:31:46.166Z,75.79
2022-11-24T21:34:15.626Z,76.72
2022-11-24T21:36:45.053Z,76.59
2022-11-24T21:39:16.360Z,76.29
2022-11-24T21:41:45.782Z,76.81
2022-11-24T21:44:15.228Z,77.58
2022-11-24T21:46:49.534Z,77.00
2022-11-24T21:49:22.436Z,76.55
2022-11-24T21:51:55.369Z,77.01
2022-11-24T21:54:22.529Z,76.57
2022-11-24T21:56:51.296Z,76.60
2022-11-24T21:59:22.846Z,76.79
2022-11-24T22:01:49.634Z,77.26
2022-11-24T22:04:19.975Z,77.55
2022-11-24T22:06:46.478Z,77.63
2022-11-24T22:09:17.769Z,77.38
2022-11-24T22:11:49.697Z,75.70
2022-11-24T22:14:18.848Z,76.85
2022-11-24T22:16:45.677Z,76.53
2022-11-24T22:19:14.736Z,76.77
2022-11-24T22:21:41.295Z,76.91
2022-11-24T22:24:10.663Z,77.26
2022-11-24T22:26:37.506Z,76.92
2022-11-24T22:29:08.571Z,77.09
2022-11-24T22:31:35.240Z,77.50
2022-11-24T22:34:01.857Z,76.71
2022-11-24T22:36:30.077Z,77.45
2022-11-24T22:39:04.161Z,77.70
2022-11-24T22:41:35.226Z,77.99
2022-11-24T22:44:01.834Z,78.21
2022-11-24T22:46:32.488Z,78.27
2022-11-24T22:49:00.658Z,77.48
2022-11-24T22:51:30.019Z,77.74
2022-11-24T22:53:59.346Z,78.33
2022-11-24T22:56:35.371Z,78.53
2022-11-24T22:59:06.816Z,79.50
2022-11-24T23:01:34.189Z,79.73
2022-11-24T23:04:04.301Z,81.19
2022-11-24T23:06:32.821Z,80.55
2022-11-24T23:09:04.112Z,80.49
2022-11-24T23:11:38.976Z,80.09
2022-11-24T23:14:16.510Z,79.93
2022-11-24T23:16:44.091Z,80.25
2022-11-24T23:19:13.410Z,80.42
2022-11-24T23:21:42.162Z,80.00
2022-11-24T23:24:12.260Z,81.44
2022-11-24T23:26:43.527Z,82.38
2022-11-24T23:29:10.744Z,82.86
2022-11-24T23:31:40.173Z,82.22
2022-11-24T23:34:09.621Z,83.31
2022-11-24T23:36:39.148Z,84.47
2022-11-24T23:39:08.806Z,84.37
2022-11-24T23:41:35.505Z,84.96
2022-11-24T23:44:02.334Z,85.38
2022-11-24T23:46:29.183Z,85.98
2022-11-24T23:48:58.518Z,85.64
2022-11-24T23:51:25.101Z,85.13
2022-11-24T23:53:52.252Z,85.15
2022-11-24T23:56:25.616Z,85.34
2022-11-24T23:58:54.452Z,85.50
